sensor_id;sensor_type;location;lat;lon;timestamp;temperature;humidity
7516;DHT22;3799;47.184;8.538;2023-09-19T06:04:33;17.20;99.90
7516;DHT22;3799;47.184;8.538;2023-09-19T06:07:16;17.20;99.90
7516;DHT22;3799;47.184;8.538;2023-09-19T06:09:54;17.60;99.90
7516;DHT22;3799;47.184;8.538;2023-09-19T06:12:23;17.90;99.90
7516;DHT22;3799;47.184;8.538;2023-09-19T06:14:50;17.80;99.90
7516;DHT22;3799;47.184;8.538;2023-09-19T06:17:25;18.00;99.90
7516;DHT22;3799;47.184;8.538;2023-09-19T06:19:55;18.60;99.90
7516;DHT22;3799;47.184;8.538;2023-09-19T06:22:23;18.50;99.90
7516;DHT22;3799;47.184;8.538;2023-09-19T06:24:53;18.70;99.90
7516;DHT22;3799;47.184;8.538;2023-09-19T06:27:24;18.60;99.90
7516;DHT22;3799;47.184;8.538;2023-09-19T06:29:59;18.70;99.90
7516;DHT22;3799;47.184;8.538;2023-09-19T06:32:31;18.70;99.90
7516;DHT22;3799;47.184;8.538;2023-09-19T06:35:06;18.90;99.90
7516;DHT22;3799;47.184;8.538;2023-09-19T06:37:44;18.90;99.90
7516;DHT22;3799;47.184;8.538;2023-09-19T06:40:15;19.00;99.90
7516;DHT22;3799;47.184;8.538;2023-09-19T06:42:58;19.00;99.90
7516;DHT22;3799;47.184;8.538;2023-09-19T06:45:31;19.50;99.90
7516;DHT22;3799;47.184;8.538;2023-09-19T06:48:17;19.30;99.90
7516;DHT22;3799;47.184;8.538;2023-09-19T06:50:46;19.20;99.90
7516;DHT22;3799;47.184;8.538;2023-09-19T06:53:14;18.90;99.90
7516;DHT22;3799;47.184;8.538;2023-09-19T06:55:42;19.00;99.90
7516;DHT22;3799;47.184;8.538;2023-09-19T06:58:11;19.00;99.90
7516;DHT22;3799;47.184;8.538;2023-09-19T07:00:41;19.20;99.90
7516;DHT22;3799;47.184;8.538;2023-09-19T07:03:13;19.30;99.90
7516;DHT22;3799;47.184;8.538;2023-09-19T07:05:44;19.20;99.90
7516;DHT22;3799;47.184;8.538;2023-09-19T07:08:11;19.30;99.90
7516;DHT22;3799;47.184;8.538;2023-09-19T07:10:42;19.30;99.90
7516;DHT22;3799;47.184;8.538;2023-09-19T07:13:23;19.40;99.90
7516;DHT22;3799;47.184;8.538;2023-09-19T07:15:55;19.20;99.90
7516;DHT22;3799;47.184;8.538;2023-09-19T07:18:40;19.10;99.90
7516;DHT22;3799;47.184;8.538;2023-09-19T07:21:10;19.10;99.90
7516;DHT22;3799;47.184;8.538;2023-09-19T07:23:38;19.10;99.90
7516;DHT22;3799;47.184;8.538;2023-09-19T07:26:22;18.70;99.90
7516;DHT22;3799;47.184;8.538;2023-09-19T07:28:52;18.90;99.90
7516;DHT22;3799;47.184;8.538;2023-09-19T07:31:20;18.30;99.90
7516;DHT22;3799;47.184;8.538;2023-09-19T07:33:51;18.10;99.90
7516;DHT22;3799;47.184;8.538;2023-09-19T07:36:21;18.00;99.90
7516;DHT22;3799;47.184;8.538;2023-09-19T07:38:53;18.20;99.90
7516;DHT22;3799;47.184;8.538;2023-09-19T07:41:57;18.20;99.90
7516;DHT22;3799;47.184;8.538;2023-09-19T07:44:46;18.10;99.90
7516;DHT22;3799;47.184;8.538;2023-09-19T07:47:22;18.10;99.90
7516;DHT22;3799;47.184;8.538;2023-09-19T07:50:19;18.30;99.90
7516;DHT22;3799;47.184;8.538;2023-09-19T07:53:06;18.40;99.90
7516;DHT22;3799;47.184;8.538;2023-09-19T07:55:36;18.80;99.90
7516;DHT22;3799;47.184;8.538;2023-09-19T07:58:03;19.00;99.90
7516;DHT22;3799;47.184;8.538;2023-09-19T08:00:50;19.00;99.90
7516;DHT22;3799;47.184;8.538;2023-09-19T08:03:21;19.10;99.90
7516;DHT22;3799;47.184;8.538;2023-09-19T08:06:08;18.80;99.90
7516;DHT22;3799;47.184;8.538;2023-09-19T08:08:44;18.90;99.90
7516;DHT22;3799;47.184;8.538;2023-09-19T08:11:20;19.00;99.90
7516;DHT22;3799;47.184;8.538;2023-09-19T08:13:53;19.00;99.90
7516;DHT22;3799;47.184;8.538;2023-09-19T08:16:29;19.10;99.90
7516;DHT22;3799;47.184;8.538;2023-09-19T08:18:59;18.90;99.90
7516;DHT22;3799;47.184;8.538;2023-09-19T08:21:30;18.90;99.90
7516;DHT22;3799;47.184;8.538;2023-09-19T08:26:47;19.10;99.90
7516;DHT22;3799;47.184;8.538;2023-09-19T08:29:43;19.60;99.90
7516;DHT22;3799;47.184;8.538;2023-09-19T08:32:51;19.40;99.90
7516;DHT22;3799;47.184;8.538;2023-09-19T08:35:31;19.40;99.90
7516;DHT22;3799;47.184;8.538;2023-09-19T08:38:01;19.50;99.90
7516;DHT22;3799;47.184;8.538;2023-09-19T08:40:40;19.40;99.90
7516;DHT22;3799;47.184;8.538;2023-09-19T08:43:30;19.50;99.90
7516;DHT22;3799;47.184;8.538;2023-09-19T08:46:14;19.60;99.90
7516;DHT22;3799;47.184;8.538;2023-09-19T08:49:07;19.50;99.90
7516;DHT22;3799;47.184;8.538;2023-09-19T08:54:52;19.60;99.90
7516;DHT22;3799;47.184;8.538;2023-09-19T08:57:33;19.40;99.90
7516;DHT22;3799;47.184;8.538;2023-09-19T09:00:21;19.50;99.90
7516;DHT22;3799;47.184;8.538;2023-09-19T09:03:12;19.40;99.90
7516;DHT22;3799;47.184;8.538;2023-09-19T09:06:42;19.60;99.90
7516;DHT22;3799;47.184;8.538;2023-09-19T09:09:13;19.60;99.90
7516;DHT22;3799;47.184;8.538;2023-09-19T09:12:19;19.60;99.90
7516;DHT22;3799;47.184;8.538;2023-09-19T09:15:23;19.30;99.90
7516;DHT22;3799;47.184;8.538;2023-09-19T09:17:51;19.10;99.90
7516;DHT22;3799;47.184;8.538;2023-09-19T09:20:44;19.40;99.90
7516;DHT22;3799;47.184;8.538;2023-09-19T09:23:27;19.60;99.90
7516;DHT22;3799;47.184;8.538;2023-09-19T09:26:41;19.60;99.90
7516;DHT22;3799;47.184;8.538;2023-09-19T09:29:13;19.90;99.90
7516;DHT22;3799;47.184;8.538;2023-09-19T09:31:53;20.10;99.90
7516;DHT22;3799;47.184;8.538;2023-09-19T09:34:33;20.00;99.90
7516;DHT22;3799;47.184;8.538;2023-09-19T09:37:18;20.10;99.90
7516;DHT22;3799;47.184;8.538;2023-09-19T09:40:54;19.90;99.90
7516;DHT22;3799;47.184;8.538;2023-09-19T09:43:45;20.40;99.90
7516;DHT22;3799;47.184;8.538;2023-09-19T09:46:43;20.50;99.90
7516;DHT22;3799;47.184;8.538;2023-09-19T09:50:26;20.60;99.90
7516;DHT22;3799;47.184;8.538;2023-09-19T09:54:12;20.80;99.90
7516;DHT22;3799;47.184;8.538;2023-09-19T09:57:12;21.00;99.90
7516;DHT22;3799;47.184;8.538;2023-09-19T10:01:01;21.10;99.90
7516;DHT22;3799;47.184;8.538;2023-09-19T10:03:58;21.10;99.90
7516;DHT22;3799;47.184;8.538;2023-09-19T10:09:52;21.00;99.90
7516;DHT22;3799;47.184;8.538;2023-09-19T10:12:33;21.10;99.90
7516;DHT22;3799;47.184;8.538;2023-09-19T10:15:11;21.20;99.90
7516;DHT22;3799;47.184;8.538;2023-09-19T10:17:49;21.20;99.90
7516;DHT22;3799;47.184;8.538;2023-09-19T10:20:26;21.20;99.90
7516;DHT22;3799;47.184;8.538;2023-09-19T10:23:12;21.20;99.90
7516;DHT22;3799;47.184;8.538;2023-09-19T10:26:01;21.30;99.90
7516;DHT22;3799;47.184;8.538;2023-09-19T10:28:32;21.20;99.90
7516;DHT22;3799;47.184;8.538;2023-09-19T10:31:03;21.20;99.90
7516;DHT22;3799;47.184;8.538;2023-09-19T10:33:42;21.20;99.90
7516;DHT22;3799;47.184;8.538;2023-09-19T10:36:24;21.20;99.90
7516;DHT22;3799;47.184;8.538;2023-09-19T10:38:59;21.10;99.90
7516;DHT22;3799;47.184;8.538;2023-09-19T10:41:56;21.10;99.90
7516;DHT22;3799;47.184;8.538;2023-09-19T10:45:19;21.10;99.90
7516;DHT22;3799;47.184;8.538;2023-09-19T10:47:51;21.30;99.90
7516;DHT22;3799;47.184;8.538;2023-09-19T10:50:22;21.60;99.90
7516;DHT22;3799;47.184;8.538;2023-09-19T10:53:09;21.90;99.90
7516;DHT22;3799;47.184;8.538;2023-09-19T10:59:15;22.40;99.90
7516;DHT22;3799;47.184;8.538;2023-09-19T11:02:15;22.60;99.90
7516;DHT22;3799;47.184;8.538;2023-09-19T11:04:51;22.60;99.90
7516;DHT22;3799;47.184;8.538;2023-09-19T11:07:58;22.50;99.90
7516;DHT22;3799;47.184;8.538;2023-09-19T11:10:51;22.30;99.90
7516;DHT22;3799;47.184;8.538;2023-09-19T11:13:38;22.10;99.90
7516;DHT22;3799;47.184;8.538;2023-09-19T11:16:18;22.00;99.90
7516;DHT22;3799;47.184;8.538;2023-09-19T11:18:56;22.00;99.90
7516;DHT22;3799;47.184;8.538;2023-09-19T11:21:54;22.00;99.90
7516;DHT22;3799;47.184;8.538;2023-09-19T11:28:39;22.10;99.90
7516;DHT22;3799;47.184;8.538;2023-09-19T11:31:45;22.40;99.90
7516;DHT22;3799;47.184;8.538;2023-09-19T11:40:13;23.20;98.70
7516;DHT22;3799;47.184;8.538;2023-09-19T11:42:57;23.10;97.70
7516;DHT22;3799;47.184;8.538;2023-09-19T11:48:32;23.30;98.60
7516;DHT22;3799;47.184;8.538;2023-09-19T11:57:43;24.10;96.30
7516;DHT22;3799;47.184;8.538;2023-09-19T12:00:18;24.10;94.50
7516;DHT22;3799;47.184;8.538;2023-09-19T12:03:08;24.10;94.20
7516;DHT22;3799;47.184;8.538;2023-09-19T12:06:13;24.20;92.40
7516;DHT22;3799;47.184;8.538;2023-09-19T12:09:19;24.20;92.40
7516;DHT22;3799;47.184;8.538;2023-09-19T12:11:59;24.50;90.80
7516;DHT22;3799;47.184;8.538;2023-09-19T12:15:00;24.60;90.10
7516;DHT22;3799;47.184;8.538;2023-09-19T12:17:55;24.60;88.60
7516;DHT22;3799;47.184;8.538;2023-09-19T12:20:47;24.60;86.70
7516;DHT22;3799;47.184;8.538;2023-09-19T12:23:32;24.70;87.70
7516;DHT22;3799;47.184;8.538;2023-09-19T12:26:14;24.80;85.50
7516;DHT22;3799;47.184;8.538;2023-09-19T12:29:22;25.00;83.80
7516;DHT22;3799;47.184;8.538;2023-09-19T12:31:55;25.30;83.00
7516;DHT22;3799;47.184;8.538;2023-09-19T12:34:53;25.50;82.40
7516;DHT22;3799;47.184;8.538;2023-09-19T12:38:31;25.70;77.50
7516;DHT22;3799;47.184;8.538;2023-09-19T12:41:19;26.00;74.70
7516;DHT22;3799;47.184;8.538;2023-09-19T12:44:04;26.10;72.20
7516;DHT22;3799;47.184;8.538;2023-09-19T12:46:49;26.20;71.20
7516;DHT22;3799;47.184;8.538;2023-09-19T12:49:20;26.40;70.30
7516;DHT22;3799;47.184;8.538;2023-09-19T12:51:51;26.50;71.20
7516;DHT22;3799;47.184;8.538;2023-09-19T12:54:42;26.60;73.50
7516;DHT22;3799;47.184;8.538;2023-09-19T12:57:24;26.90;71.40
7516;DHT22;3799;47.184;8.538;2023-09-19T12:59:57;27.10;66.20
7516;DHT22;3799;47.184;8.538;2023-09-19T13:02:28;27.10;66.50
7516;DHT22;3799;47.184;8.538;2023-09-19T13:05:05;27.20;65.20
7516;DHT22;3799;47.184;8.538;2023-09-19T13:07:45;27.30;61.40
7516;DHT22;3799;47.184;8.538;2023-09-19T13:10:19;27.50;60.20
7516;DHT22;3799;47.184;8.538;2023-09-19T13:12:53;27.60;59.10
7516;DHT22;3799;47.184;8.538;2023-09-19T13:15:21;27.50;58.50
7516;DHT22;3799;47.184;8.538;2023-09-19T13:17:53;27.50;58.00
7516;DHT22;3799;47.184;8.538;2023-09-19T13:20:38;27.50;57.80
7516;DHT22;3799;47.184;8.538;2023-09-19T13:23:30;27.60;57.90
7516;DHT22;3799;47.184;8.538;2023-09-19T13:25:58;27.80;56.90
7516;DHT22;3799;47.184;8.538;2023-09-19T13:28:28;28.10;56.70
7516;DHT22;3799;47.184;8.538;2023-09-19T13:30:56;28.30;55.50
7516;DHT22;3799;47.184;8.538;2023-09-19T13:33:28;28.40;54.90
7516;DHT22;3799;47.184;8.538;2023-09-19T13:36:03;28.50;55.20
7516;DHT22;3799;47.184;8.538;2023-09-19T13:38:37;28.40;54.60
7516;DHT22;3799;47.184;8.538;2023-09-19T13:41:07;28.50;54.90
7516;DHT22;3799;47.184;8.538;2023-09-19T13:43:38;28.60;54.00
7516;DHT22;3799;47.184;8.538;2023-09-19T13:46:07;28.60;54.30
7516;DHT22;3799;47.184;8.538;2023-09-19T13:48:42;28.50;54.20
7516;DHT22;3799;47.184;8.538;2023-09-19T13:51:13;28.70;53.60
7516;DHT22;3799;47.184;8.538;2023-09-19T13:53:44;28.70;53.30
7516;DHT22;3799;47.184;8.538;2023-09-19T13:56:14;28.70;52.90
7516;DHT22;3799;47.184;8.538;2023-09-19T13:58:57;28.70;52.70
7516;DHT22;3799;47.184;8.538;2023-09-19T14:01:34;28.80;52.40
7516;DHT22;3799;47.184;8.538;2023-09-19T14:04:01;28.90;52.60
7516;DHT22;3799;47.184;8.538;2023-09-19T14:06:29;29.00;52.30
7516;DHT22;3799;47.184;8.538;2023-09-19T14:12:58;29.10;52.40
7516;DHT22;3799;47.184;8.538;2023-09-19T14:15:31;29.60;51.40
7516;DHT22;3799;47.184;8.538;2023-09-19T14:18:11;29.80;51.80
7516;DHT22;3799;47.184;8.538;2023-09-19T14:21:03;29.90;51.90
7516;DHT22;3799;47.184;8.538;2023-09-19T14:23:37;30.10;50.90
7516;DHT22;3799;47.184;8.538;2023-09-19T14:26:24;30.20;50.30
7516;DHT22;3799;47.184;8.538;2023-09-19T14:29:04;30.30;50.00
7516;DHT22;3799;47.184;8.538;2023-09-19T14:31:32;30.10;50.50
7516;DHT22;3799;47.184;8.538;2023-09-19T14:34:35;30.10;50.70
7516;DHT22;3799;47.184;8.538;2023-09-19T14:37:58;30.20;49.60
7516;DHT22;3799;47.184;8.538;2023-09-19T14:40:30;29.90;49.40
7516;DHT22;3799;47.184;8.538;2023-09-19T14:43:18;29.90;49.60
7516;DHT22;3799;47.184;8.538;2023-09-19T14:46:12;29.90;49.90
7516;DHT22;3799;47.184;8.538;2023-09-19T14:49:34;30.10;49.30
7516;DHT22;3799;47.184;8.538;2023-09-19T14:52:33;30.20;49.30
7516;DHT22;3799;47.184;8.538;2023-09-19T14:55:43;30.30;49.20
7516;DHT22;3799;47.184;8.538;2023-09-19T15:01:52;30.50;48.50
7516;DHT22;3799;47.184;8.538;2023-09-19T15:04:25;30.50;47.50
7516;DHT22;3799;47.184;8.538;2023-09-19T15:07:05;30.50;47.90
7516;DHT22;3799;47.184;8.538;2023-09-19T15:09:34;30.60;47.80
7516;DHT22;3799;47.184;8.538;2023-09-19T15:12:11;30.70;47.80
7516;DHT22;3799;47.184;8.538;2023-09-19T15:15:22;30.70;47.70
7516;DHT22;3799;47.184;8.538;2023-09-19T15:18:03;30.70;47.40
7516;DHT22;3799;47.184;8.538;2023-09-19T15:20:56;30.70;47.40
7516;DHT22;3799;47.184;8.538;2023-09-19T15:23:51;30.70;47.00
7516;DHT22;3799;47.184;8.538;2023-09-19T15:26:35;30.70;47.30
7516;DHT22;3799;47.184;8.538;2023-09-19T15:29:22;30.60;47.30
7516;DHT22;3799;47.184;8.538;2023-09-19T15:31:50;30.50;46.80
7516;DHT22;3799;47.184;8.538;2023-09-19T15:38:10;30.10;47.30
7516;DHT22;3799;47.184;8.538;2023-09-19T15:41:16;30.10;47.50
7516;DHT22;3799;47.184;8.538;2023-09-19T15:43:55;30.10;47.50
7516;DHT22;3799;47.184;8.538;2023-09-19T15:46:35;30.10;47.10
7516;DHT22;3799;47.184;8.538;2023-09-19T15:52:24;30.10;46.60
7516;DHT22;3799;47.184;8.538;2023-09-19T15:54:58;30.10;46.50
7516;DHT22;3799;47.184;8.538;2023-09-19T15:57:27;29.90;46.20
7516;DHT22;3799;47.184;8.538;2023-09-19T16:00:10;29.80;46.90
7516;DHT22;3799;47.184;8.538;2023-09-19T16:02:45;29.70;46.70
7516;DHT22;3799;47.184;8.538;2023-09-19T16:05:21;29.60;46.90
7516;DHT22;3799;47.184;8.538;2023-09-19T16:08:33;29.60;47.20
7516;DHT22;3799;47.184;8.538;2023-09-19T16:11:07;29.70;47.10
7516;DHT22;3799;47.184;8.538;2023-09-19T16:17:05;29.70;47.10
7516;DHT22;3799;47.184;8.538;2023-09-19T16:19:35;29.60;47.40
7516;DHT22;3799;47.184;8.538;2023-09-19T16:22:16;29.50;47.60
7516;DHT22;3799;47.184;8.538;2023-09-19T16:24:46;29.50;47.70
7516;DHT22;3799;47.184;8.538;2023-09-19T16:27:33;29.60;47.40
7516;DHT22;3799;47.184;8.538;2023-09-19T16:30:31;29.70;47.00
7516;DHT22;3799;47.184;8.538;2023-09-19T16:33:20;29.50;47.30
7516;DHT22;3799;47.184;8.538;2023-09-19T16:35:47;29.40;47.50
7516;DHT22;3799;47.184;8.538;2023-09-19T16:38:31;29.20;47.30
7516;DHT22;3799;47.184;8.538;2023-09-19T16:41:02;28.90;47.50
7516;DHT22;3799;47.184;8.538;2023-09-19T16:43:31;28.50;48.10
7516;DHT22;3799;47.184;8.538;2023-09-19T16:46:06;28.20;48.40
7516;DHT22;3799;47.184;8.538;2023-09-19T16:48:47;27.90;48.60
7516;DHT22;3799;47.184;8.538;2023-09-19T16:51:18;27.70;49.00
7516;DHT22;3799;47.184;8.538;2023-09-19T16:53:59;27.60;49.40
7516;DHT22;3799;47.184;8.538;2023-09-19T16:56:29;27.40;49.60
7516;DHT22;3799;47.184;8.538;2023-09-19T16:59:05;27.40;50.20
7516;DHT22;3799;47.184;8.538;2023-09-19T17:01:33;27.40;50.20
7516;DHT22;3799;47.184;8.538;2023-09-19T17:04:13;27.50;50.10
7516;DHT22;3799;47.184;8.538;2023-09-19T17:06:40;27.50;50.30
7516;DHT22;3799;47.184;8.538;2023-09-19T17:09:17;27.50;50.50
7516;DHT22;3799;47.184;8.538;2023-09-19T17:11:50;27.30;50.30
7516;DHT22;3799;47.184;8.538;2023-09-19T17:14:24;27.20;50.70
7516;DHT22;3799;47.184;8.538;2023-09-19T17:17:02;27.10;51.60
7516;DHT22;3799;47.184;8.538;2023-09-19T17:19:33;26.90;51.70
7516;DHT22;3799;47.184;8.538;2023-09-19T17:22:10;26.80;52.90
7516;DHT22;3799;47.184;8.538;2023-09-19T17:25:14;26.60;53.70
7516;DHT22;3799;47.184;8.538;2023-09-19T17:27:45;26.20;54.60
7516;DHT22;3799;47.184;8.538;2023-09-19T17:30:29;25.70;55.70
7516;DHT22;3799;47.184;8.538;2023-09-19T17:33:21;25.10;56.40
7516;DHT22;3799;47.184;8.538;2023-09-19T17:36:28;24.60;57.00
7516;DHT22;3799;47.184;8.538;2023-09-19T17:39:01;24.00;58.20
7516;DHT22;3799;47.184;8.538;2023-09-19T17:41:45;23.60;59.20
7516;DHT22;3799;47.184;8.538;2023-09-19T17:44:15;23.20;59.80
7516;DHT22;3799;47.184;8.538;2023-09-19T17:46:44;23.00;62.20
7516;DHT22;3799;47.184;8.538;2023-09-19T17:49:27;22.80;64.80
7516;DHT22;3799;47.184;8.538;2023-09-19T17:51:54;22.50;66.10
7516;DHT22;3799;47.184;8.538;2023-09-19T17:54:28;22.30;68.00
7516;DHT22;3799;47.184;8.538;2023-09-19T17:56:58;22.10;70.00
7516;DHT22;3799;47.184;8.538;2023-09-19T17:59:25;21.90;73.20
7516;DHT22;3799;47.184;8.538;2023-09-19T18:01:52;21.80;76.80
7516;DHT22;3799;47.184;8.538;2023-09-19T18:04:20;21.70;79.70
7516;DHT22;3799;47.184;8.538;2023-09-19T18:06:47;21.60;84.50
7516;DHT22;3799;47.184;8.538;2023-09-19T18:09:15;21.60;89.60
7516;DHT22;3799;47.184;8.538;2023-09-19T18:11:45;21.40;90.60
7516;DHT22;3799;47.184;8.538;2023-09-19T18:14:12;21.40;93.20
7516;DHT22;3799;47.184;8.538;2023-09-19T18:16:43;21.20;92.00
7516;DHT22;3799;47.184;8.538;2023-09-19T18:19:10;21.10;95.20
7516;DHT22;3799;47.184;8.538;2023-09-19T18:21:46;20.90;97.90
7516;DHT22;3799;47.184;8.538;2023-09-19T18:24:16;20.90;99.40
7516;DHT22;3799;47.184;8.538;2023-09-19T18:26:43;20.70;98.70
7516;DHT22;3799;47.184;8.538;2023-09-19T18:29:13;20.40;99.10
7516;DHT22;3799;47.184;8.538;2023-09-19T18:31:41;20.20;99.90
7516;DHT22;3799;47.184;8.538;2023-09-19T18:34:09;19.80;99.90
7516;DHT22;3799;47.184;8.538;2023-09-19T18:36:37;19.80;99.90
7516;DHT22;3799;47.184;8.538;2023-09-19T18:39:04;19.40;99.90
7516;DHT22;3799;47.184;8.538;2023-09-19T18:41:35;19.30;99.90
7516;DHT22;3799;47.184;8.538;2023-09-19T18:44:10;19.20;99.90
7516;DHT22;3799;47.184;8.538;2023-09-19T18:46:38;19.10;99.90
7516;DHT22;3799;47.184;8.538;2023-09-19T18:49:10;19.10;99.90
7516;DHT22;3799;47.184;8.538;2023-09-19T18:51:39;19.20;99.90
7516;DHT22;3799;47.184;8.538;2023-09-19T18:54:07;19.30;99.90
7516;DHT22;3799;47.184;8.538;2023-09-19T18:56:42;19.20;99.90
7516;DHT22;3799;47.184;8.538;2023-09-19T18:59:16;19.00;99.90
7516;DHT22;3799;47.184;8.538;2023-09-19T19:01:47;19.30;99.90
7516;DHT22;3799;47.184;8.538;2023-09-19T19:04:15;19.40;99.90
7516;DHT22;3799;47.184;8.538;2023-09-19T19:06:42;19.70;99.90
7516;DHT22;3799;47.184;8.538;2023-09-19T19:09:09;19.90;99.90
7516;DHT22;3799;47.184;8.538;2023-09-19T19:11:39;19.90;99.90
7516;DHT22;3799;47.184;8.538;2023-09-19T19:14:07;19.80;99.90
7516;DHT22;3799;47.184;8.538;2023-09-19T19:16:36;20.20;99.90
7516;DHT22;3799;47.184;8.538;2023-09-19T19:19:04;19.90;99.90
7516;DHT22;3799;47.184;8.538;2023-09-19T19:21:32;20.00;99.90
7516;DHT22;3799;47.184;8.538;2023-09-19T19:24:01;20.10;99.90
7516;DHT22;3799;47.184;8.538;2023-09-19T19:26:29;20.20;99.90
7516;DHT22;3799;47.184;8.538;2023-09-19T19:28:57;20.20;99.90
7516;DHT22;3799;47.184;8.538;2023-09-19T19:31:25;20.30;99.90
7516;DHT22;3799;47.184;8.538;2023-09-19T19:33:52;20.30;99.90
7516;DHT22;3799;47.184;8.538;2023-09-19T19:36:23;20.30;99.90
7516;DHT22;3799;47.184;8.538;2023-09-19T19:38:52;20.30;99.90
7516;DHT22;3799;47.184;8.538;2023-09-19T19:41:19;20.30;99.90
7516;DHT22;3799;47.184;8.538;2023-09-19T19:43:49;20.30;99.90
7516;DHT22;3799;47.184;8.538;2023-09-19T19:46:30;20.00;99.90
7516;DHT22;3799;47.184;8.538;2023-09-19T19:49:00;20.20;99.90
7516;DHT22;3799;47.184;8.538;2023-09-19T19:51:27;20.20;99.90
7516;DHT22;3799;47.184;8.538;2023-09-19T19:54:11;19.80;99.90
7516;DHT22;3799;47.184;8.538;2023-09-19T19:56:51;19.50;99.90
7516;DHT22;3799;47.184;8.538;2023-09-19T19:59:18;19.30;99.90
7516;DHT22;3799;47.184;8.538;2023-09-19T20:01:45;19.00;99.90
7516;DHT22;3799;47.184;8.538;2023-09-19T20:04:13;19.00;99.90
7516;DHT22;3799;47.184;8.538;2023-09-19T20:06:42;19.00;99.90
7516;DHT22;3799;47.184;8.538;2023-09-19T20:09:12;19.20;99.90
7516;DHT22;3799;47.184;8.538;2023-09-19T20:11:41;19.30;99.90
7516;DHT22;3799;47.184;8.538;2023-09-19T20:14:11;19.60;99.90
7516;DHT22;3799;47.184;8.538;2023-09-19T20:16:38;19.70;99.90
7516;DHT22;3799;47.184;8.538;2023-09-19T20:19:07;19.60;99.90
7516;DHT22;3799;47.184;8.538;2023-09-19T20:21:36;19.80;99.90
7516;DHT22;3799;47.184;8.538;2023-09-19T20:24:06;19.80;99.90
7516;DHT22;3799;47.184;8.538;2023-09-19T20:26:36;19.60;99.90
7516;DHT22;3799;47.184;8.538;2023-09-19T21:32:35;18.80;99.90
7516;DHT22;3799;47.184;8.538;2023-09-19T21:35:13;18.70;99.90
7516;DHT22;3799;47.184;8.538;2023-09-19T21:37:45;18.50;99.90
7516;DHT22;3799;47.184;8.538;2023-09-19T21:40:46;18.60;99.90
7516;DHT22;3799;47.184;8.538;2023-09-19T21:43:44;18.60;99.90
7516;DHT22;3799;47.184;8.538;2023-09-19T21:46:36;18.60;99.90
7516;DHT22;3799;47.184;8.538;2023-09-19T21:49:48;18.70;99.90
7516;DHT22;3799;47.184;8.538;2023-09-19T21:52:16;18.60;99.90
7516;DHT22;3799;47.184;8.538;2023-09-19T21:54:52;18.50;99.90
7516;DHT22;3799;47.184;8.538;2023-09-19T21:57:31;18.60;99.90
7516;DHT22;3799;47.184;8.538;2023-09-19T22:00:26;18.40;99.90
7516;DHT22;3799;47.184;8.538;2023-09-19T22:03:20;18.10;99.90
7516;DHT22;3799;47.184;8.538;2023-09-19T22:06:13;18.00;99.90
7516;DHT22;3799;47.184;8.538;2023-09-19T22:09:07;18.10;99.90
7516;DHT22;3799;47.184;8.538;2023-09-19T22:15:10;18.20;99.90
7516;DHT22;3799;47.184;8.538;2023-09-19T22:17:42;18.00;99.90
7516;DHT22;3799;47.184;8.538;2023-09-19T22:20:15;18.10;99.90
7516;DHT22;3799;47.184;8.538;2023-09-19T22:23:20;18.00;99.90
7516;DHT22;3799;47.184;8.538;2023-09-19T22:26:28;18.00;99.90
7516;DHT22;3799;47.184;8.538;2023-09-19T22:29:33;18.10;99.90
7516;DHT22;3799;47.184;8.538;2023-09-19T22:32:27;17.80;99.90
7516;DHT22;3799;47.184;8.538;2023-09-19T22:35:18;18.20;99.90
7516;DHT22;3799;47.184;8.538;2023-09-19T22:37:55;18.00;99.90
7516;DHT22;3799;47.184;8.538;2023-09-19T22:40:47;18.20;99.90
7516;DHT22;3799;47.184;8.538;2023-09-19T22:43:54;18.30;99.90
7516;DHT22;3799;47.184;8.538;2023-09-19T22:46:28;18.00;99.90
7516;DHT22;3799;47.184;8.538;2023-09-19T22:49:21;18.30;99.90
7516;DHT22;3799;47.184;8.538;2023-09-19T22:52:01;18.00;99.90
7516;DHT22;3799;47.184;8.538;2023-09-19T22:54:36;18.10;99.90
7516;DHT22;3799;47.184;8.538;2023-09-19T22:57:17;18.00;99.90
7516;DHT22;3799;47.184;8.538;2023-09-19T23:00:03;18.40;99.90
7516;DHT22;3799;47.184;8.538;2023-09-19T23:03:04;18.20;99.90
7516;DHT22;3799;47.184;8.538;2023-09-19T23:06:04;18.20;99.90
7516;DHT22;3799;47.184;8.538;2023-09-19T23:09:07;18.10;99.90
7516;DHT22;3799;47.184;8.538;2023-09-19T23:12:07;18.10;99.90
7516;DHT22;3799;47.184;8.538;2023-09-19T23:15:11;18.40;99.90
7516;DHT22;3799;47.184;8.538;2023-09-19T23:18:14;17.90;99.90
7516;DHT22;3799;47.184;8.538;2023-09-19T23:21:10;18.00;99.90
7516;DHT22;3799;47.184;8.538;2023-09-19T23:24:41;18.10;99.90
7516;DHT22;3799;47.184;8.538;2023-09-19T23:27:27;18.40;99.90
7516;DHT22;3799;47.184;8.538;2023-09-19T23:30:29;18.10;99.90
7516;DHT22;3799;47.184;8.538;2023-09-19T23:33:41;17.80;99.90
7516;DHT22;3799;47.184;8.538;2023-09-19T23:36:10;18.10;99.90
7516;DHT22;3799;47.184;8.538;2023-09-19T23:39:00;17.80;99.90
7516;DHT22;3799;47.184;8.538;2023-09-19T23:41:30;17.80;99.90
7516;DHT22;3799;47.184;8.538;2023-09-19T23:44:01;17.60;99.90
7516;DHT22;3799;47.184;8.538;2023-09-19T23:46:29;17.50;99.90
7516;DHT22;3799;47.184;8.538;2023-09-19T23:49:13;17.70;99.90
7516;DHT22;3799;47.184;8.538;2023-09-19T23:51:57;17.50;99.90
7516;DHT22;3799;47.184;8.538;2023-09-19T23:54:36;17.60;99.90
7516;DHT22;3799;47.184;8.538;2023-09-19T23:57:42;17.80;99.90
